• Join FlightAware (Why Join?)
  • Login
  • US Flag 
03:03PM EDT


 

Airport Tracker/Info


-or-


 

Live Flight TrackerFlight Track Log ✈ XOJ552 ✈ 30-Jan-2014 ✈ KMWA - KPIA

Flight Track Log - Related Links

Times and Time Zones

All times are in EST time to prevent confusion due to time zone crossing. See the XOJ552 flight status page for this flight to view local times or setup timezone preferences in your user account.

Time Position Orientation Groundspeed Altitude Reporting Facility
EST Latitude Longitude Course Direction KTS MPH feet Rate Location/Type
03:52PM 37.8306 -89.1369 322° Northwest 238 274 10,100  Level Kansas City Center
03:53PM 37.8958 -89.1956 325° Northwest 291 335 13,600 3,180 Climbing Kansas City Center
03:54PM 37.9764 -89.2664 325° Northwest 349 402 16,700 3,000 Climbing Kansas City Center
03:55PM 38.0847 -89.3147 341° North 388 447 19,700 1,560 Climbing Kansas City Center
03:56PM 38.1781 -89.3331 351° North 399 459 20,000 120 Climbing Kansas City Center
03:57PM 38.3053 -89.3597 351° North 390 449 20,000  Level Kansas City Center
03:58PM 38.4153 -89.3814 351° North 399 459 20,000  Level Kansas City Center
03:59PM 38.5258 -89.4039 351° North 403 464 20,000  Level Kansas City Center
04:00PM 38.6331 -89.4261 351° North 394 453 20,000  Level Kansas City Center
04:01PM 38.7364 -89.4472 351° North 383 441 20,000  Level Kansas City Center
04:02PM 38.8403 -89.4681 351° North 381 438 20,000  Level Kansas City Center
04:03PM 38.9653 -89.4933 351° North 381 438 20,000  Level Kansas City Center
04:04PM 39.0686 -89.5164 350° North 380 437 20,000  Level Kansas City Center
04:05PM 39.1708 -89.5372 351° North 375 432 20,000  Level Kansas City Center
04:06PM 39.2744 -89.5578 351° North 378 435 20,000  Level Kansas City Center
04:07PM 39.3769 -89.5800 350° North 376 433 20,000  Level Kansas City Center
04:08PM 39.5000 -89.6044 351° North 374 430 20,000 -120 Level Kansas City Center
04:09PM 39.6044 -89.6267 351° North 379 436 19,800 -900 Descending Kansas City Center
04:10PM 39.7075 -89.6483 351° North 377 434 18,200 -1,560 Descending Kansas City Center
04:12PM 39.8039 -89.6694 350° North 362 417 16,600 -1,500 Descending Kansas City Center
04:13PM 39.9042 -89.6883 352° North 362 417 15,100 -2,040 Descending Kansas City Center
04:14PM 40.0264 -89.7042 354° North 366 421 12,600 -1,920 Descending Kansas City Center
04:15PM 40.1167 -89.6797 12° North 346 398 11,100 -1,500 Descending Kansas City Center
04:15PM 40.1825 -89.6564 15° North 325 374 9,800 -1,680 Descending Chicago Center
04:16PM 40.2611 -89.6356 11° North 306 352 8,100 -900 Descending Chicago Center
04:17PM 40.3364 -89.6147 12° North 291 335 8,000 -300 Descending Chicago Center
04:18PM 40.4108 -89.5928 13° North 282 325 7,500 -1,320 Descending Chicago Center
04:20PM 40.4850 -89.5756 10° North 276 318 5,400 -1,260 Descending Chicago Center
04:21PM 40.5561 -89.5269 27° Northeast 264 304 5,000 -240 Descending Chicago Center
04:22PM 40.6036 -89.4639 45° Northeast 251 289 5,000 -60 Level Chicago Center
04:23PM 40.6569 -89.4244 29° Northeast 245 282 4,900 -300 Descending Chicago Center
04:24PM 40.7158 -89.4097 11° North 225 259 4,500 -900 Descending Chicago Center
04:25PM 40.7678 -89.4300 344° North 213 245 3,100 -1,020 Descending Chicago Center
04:26PM 40.8083 -89.4778 318° Northwest 202 232 2,500 -300 Descending Chicago Center
04:27PM 40.8003 -89.5333 259° West 172 198 2,500 -60 Level Chicago Center
04:28PM 40.7708 -89.5714 224° Southwest 137 158 2,400  Descending Chicago Center
04:29PM 40.7467 -89.5972 219° Southwest 120 138 2,500 -240 Climbing Chicago Center
04:30PM 40.7228 -89.6225 219° Southwest 114 131 2,000 -540 Descending Chicago Center
04:31PM 40.7028 -89.6428 218° Southwest 102 117 1,500 -540 Descending Chicago Center
04:32PM 40.6794 -89.6661 217° Southwest 101 116 1,000 -420 Descending Chicago Center
04:33PM 40.6578 -89.6894 219° Southwest 103 119 700 -300 Descending Chicago Center